< Typhoon 197402 1974 Season Typhoon 197404 >
Typhoon 197403 (BABE)
General InformationTrack Information on Google Maps || Disaster Info.ResourceGoogle EarthGE AnimationAtom FeedGeoJSON
Detalied Best Track (Time Zone = UTC)
Year Month Day Hour Lat. Long. Pressure (hPa) Wind (kt) Class Image Chart
1974 4 25 12 8.6 150.4 1004 0 2 -- Chart
1974 4 25 18 8.8 148.8 1002 0 2 -- Chart
1974 4 26 00 9.3 147.3 1002 0 2 -- Chart
1974 4 26 06 10.4 146.5 1002 0 2 -- Chart
1974 4 26 12 11.4 145.9 1002 0 2 -- Chart
1974 4 26 18 12.1 145.5 1000 0 2 -- Chart
1974 4 27 00 12.6 145.3 1000 0 2 -- Chart
1974 4 27 06 13.3 145.5 998 0 2 -- Chart
1974 4 27 12 14.2 145.6 996 0 2 -- Chart
1974 4 27 18 15.0 145.6 996 0 2 -- Chart
1974 4 28 00 15.7 145.6 996 0 2 -- Chart
1974 4 28 06 16.4 145.5 996 0 2 -- Chart
1974 4 28 12 16.9 145.5 996 0 2 -- Chart
1974 4 28 18 17.6 145.5 996 0 2 -- Chart
1974 4 29 00 18.0 145.3 996 0 2 -- Chart
1974 4 29 06 18.5 145.3 990 0 9 -- Chart
1974 4 29 12 19.2 145.2 988 0 9 -- Chart
1974 4 29 18 19.8 145.1 985 0 9 -- Chart
1974 4 30 00 20.3 144.6 985 0 9 -- Chart
1974 4 30 06 20.8 144.1 985 0 9 -- Chart
1974 4 30 12 21.7 144.5 985 0 9 -- Chart
1974 4 30 18 22.5 145.2 985 0 9 -- Chart
1974 5 1 00 23.2 145.8 985 0 9 -- Chart
1974 5 1 06 24.5 146.6 985 0 9 -- Chart
1974 5 1 12 26.5 148.1 985 0 9 -- Chart
1974 5 1 18 28.5 149.8 990 0 9 -- Chart
1974 5 2 00 30.5 151.9 994 0 6 -- Chart
1974 5 2 06 32.1 154.9 996 0 6 -- Chart
1974 5 2 12 34.0 158.0 996 0 6 -- Chart
1974 5 2 18 38.0 162.0 996 0 6 -- Chart
1974 5 3 00 39.0 166.0 992 0 6 -- Chart
1974 5 3 06 41.0 170.0 988 0 6 -- Chart
1974 5 3 12 43.5 173.5 988 0 6 -- Chart
1974 5 3 18 45.5 177.0 988 0 6 -- Chart
1974 5 4 00 47.2 182.5 988 0 6 -- Chart
Japan Meteorological Agency Best Track Data | Correction Date : 1989-06-01
< Typhoon 197402 1974 Season Typhoon 197404 >

Help